createdAt,value
2023-05-04T00:01:11.668Z,99.90
2023-05-04T00:03:40.528Z,99.90
2023-05-04T00:06:09.402Z,99.90
2023-05-04T00:08:37.971Z,99.90
2023-05-04T00:11:08.572Z,99.90
2023-05-04T00:13:37.663Z,99.90
2023-05-04T00:16:08.544Z,99.90
2023-05-04T00:18:39.280Z,99.90
2023-05-04T00:21:08.320Z,99.90
2023-05-04T00:23:36.861Z,99.90
2023-05-04T00:26:05.469Z,99.90
2023-05-04T00:28:35.402Z,99.90
2023-05-04T00:31:04.252Z,99.90
2023-05-04T00:33:32.964Z,99.90
2023-05-04T00:36:01.780Z,99.90
2023-05-04T00:38:30.427Z,99.90
2023-05-04T00:40:59.287Z,99.90
2023-05-04T00:43:27.798Z,99.90
2023-05-04T00:45:57.777Z,99.90
2023-05-04T00:48:26.458Z,99.90
2023-05-04T00:50:54.994Z,99.90
2023-05-04T00:53:23.577Z,99.90
2023-05-04T00:55:52.251Z,99.90
2023-05-04T00:58:21.229Z,99.90
2023-05-04T01:00:49.761Z,99.90
2023-05-04T01:03:20.393Z,99.90
2023-05-04T01:05:55.121Z,99.90
2023-05-04T01:08:32.553Z,99.90
2023-05-04T01:11:11.162Z,99.90
2023-05-04T01:13:40.246Z,99.90
2023-05-04T01:16:09.113Z,99.90
2023-05-04T01:18:39.290Z,99.90
2023-05-04T01:21:07.936Z,99.90
2023-05-04T01:23:37.931Z,99.90
2023-05-04T01:26:15.990Z,99.90
2023-05-04T01:28:51.434Z,99.90
2023-05-04T01:31:24.689Z,99.90
2023-05-04T01:33:54.700Z,99.90
2023-05-04T01:36:23.558Z,99.90
2023-05-04T01:38:55.469Z,99.90
2023-05-04T01:41:24.155Z,99.90
2023-05-04T01:43:52.726Z,99.90
2023-05-04T01:46:22.185Z,99.90
2023-05-04T01:48:50.914Z,99.90
2023-05-04T01:51:19.637Z,99.90
2023-05-04T01:53:48.292Z,99.90
2023-05-04T01:56:18.352Z,99.90
2023-05-04T01:58:46.817Z,99.90
2023-05-04T02:01:15.625Z,99.90
2023-05-04T02:03:44.762Z,99.90
2023-05-04T02:06:13.519Z,99.90
2023-05-04T02:08:42.042Z,99.90
2023-05-04T02:11:10.573Z,99.90
2023-05-04T02:13:40.805Z,99.90
2023-05-04T02:16:10.020Z,99.90
2023-05-04T02:18:38.671Z,99.90
2023-05-04T02:21:07.216Z,99.90
2023-05-04T02:23:35.796Z,99.90
2023-05-04T02:26:04.525Z,99.90
2023-05-04T02:28:33.391Z,99.90
2023-05-04T02:31:03.488Z,99.90
2023-05-04T02:33:32.029Z,99.90
2023-05-04T02:36:00.527Z,99.90
2023-05-04T02:38:29.072Z,99.90
2023-05-04T02:40:58.495Z,99.90
2023-05-04T02:43:27.011Z,99.90
2023-05-04T02:45:55.698Z,99.90
2023-05-04T02:48:27.835Z,99.90
2023-05-04T02:50:56.678Z,99.90
2023-05-04T02:53:25.266Z,99.90
2023-05-04T02:55:53.804Z,99.90
2023-05-04T02:58:22.379Z,99.90
2023-05-04T03:00:55.804Z,99.90
2023-05-04T03:03:25.838Z,99.90
2023-05-04T03:05:54.444Z,99.90
2023-05-04T03:08:23.051Z,99.90
2023-05-04T03:10:51.731Z,99.90
2023-05-04T03:13:20.398Z,99.90
2023-05-04T03:15:48.917Z,99.90
2023-05-04T03:18:17.579Z,99.90
2023-05-04T03:20:47.515Z,99.90
2023-05-04T03:23:16.246Z,99.90
2023-05-04T03:25:44.790Z,99.90
2023-05-04T03:28:13.774Z,99.90
2023-05-04T03:30:42.999Z,99.90
2023-05-04T03:33:11.634Z,99.90
2023-05-04T03:35:40.195Z,99.90
2023-05-04T03:38:11.536Z,99.90
2023-05-04T03:40:40.417Z,99.90
2023-05-04T03:43:08.948Z,99.90
2023-05-04T03:45:37.764Z,99.90
2023-05-04T03:48:06.372Z,99.90
2023-05-04T03:50:35.202Z,99.90
2023-05-04T03:53:03.973Z,99.90
2023-05-04T03:55:34.787Z,99.90
2023-05-04T03:58:03.340Z,99.90
2023-05-04T04:00:32.153Z,99.90
2023-05-04T04:03:00.825Z,99.90
2023-05-04T04:05:29.555Z,99.90
2023-05-04T04:07:58.156Z,99.90
2023-05-04T04:10:26.814Z,99.90
2023-05-04T04:12:56.891Z,99.90
2023-05-04T04:15:25.579Z,99.90
2023-05-04T04:17:54.211Z,99.90
2023-05-04T04:20:22.993Z,99.90
2023-05-04T04:22:54.998Z,99.90
2023-05-04T04:25:28.323Z,99.90
2023-05-04T04:28:03.340Z,99.90
2023-05-04T04:30:32.078Z,99.90
2023-05-04T04:33:02.409Z,99.90
2023-05-04T04:35:32.744Z,99.90
2023-05-04T04:38:03.568Z,99.90
2023-05-04T04:40:32.861Z,99.90
2023-05-04T04:43:03.300Z,99.90
2023-05-04T04:45:33.795Z,99.90
2023-05-04T04:48:03.781Z,99.90
2023-05-04T04:50:32.447Z,99.90
2023-05-04T04:53:01.232Z,99.90
2023-05-04T04:55:30.119Z,99.90
2023-05-04T04:57:58.771Z,99.90
2023-05-04T05:00:28.932Z,99.90
2023-05-04T05:02:57.509Z,99.90
2023-05-04T05:05:26.120Z,99.90
2023-05-04T05:07:54.751Z,99.90
2023-05-04T05:10:23.476Z,99.90
2023-05-04T05:12:52.425Z,99.90
2023-05-04T05:15:21.086Z,99.90
2023-05-04T05:17:51.136Z,99.90
2023-05-04T05:20:19.735Z,99.90
2023-05-04T05:22:48.344Z,99.90
2023-05-04T05:25:17.799Z,99.90
2023-05-04T05:27:46.527Z,99.90
2023-05-04T05:30:15.371Z,99.90
2023-05-04T05:32:44.229Z,99.90
2023-05-04T05:35:14.637Z,99.90
2023-05-04T05:37:43.229Z,99.90
2023-05-04T05:40:12.551Z,99.90
2023-05-04T05:42:42.894Z,99.90
2023-05-04T05:45:12.814Z,99.90
2023-05-04T05:47:41.471Z,99.90
2023-05-04T05:50:10.986Z,99.90
2023-05-04T05:52:40.989Z,99.90
2023-05-04T05:55:10.480Z,99.90
2023-05-04T05:57:39.036Z,99.90
2023-05-04T06:00:09.167Z,99.90
2023-05-04T06:02:37.952Z,99.90
2023-05-04T06:05:07.201Z,99.90
2023-05-04T06:07:35.927Z,99.90
2023-05-04T06:10:06.822Z,99.90
2023-05-04T06:12:35.912Z,99.90
2023-05-04T06:15:04.868Z,99.90
2023-05-04T06:17:33.879Z,99.90
2023-05-04T06:20:02.630Z,99.90
2023-05-04T06:22:31.564Z,99.90
2023-05-04T06:25:03.642Z,99.90
2023-05-04T06:27:36.119Z,99.90
2023-05-04T06:30:05.852Z,99.90
2023-05-04T06:32:35.300Z,99.90
2023-05-04T06:35:04.295Z,99.90
2023-05-04T06:37:33.361Z,99.90
2023-05-04T06:40:02.198Z,99.90
2023-05-04T06:42:31.822Z,99.90
2023-05-04T06:45:01.802Z,99.90
2023-05-04T06:47:30.399Z,99.90
2023-05-04T06:49:59.009Z,99.90
2023-05-04T06:52:29.846Z,99.90
2023-05-04T06:55:00.205Z,99.90
2023-05-04T06:57:30.836Z,99.90
2023-05-04T07:00:00.897Z,99.90
2023-05-04T07:02:29.406Z,99.90
2023-05-04T07:04:59.372Z,99.90
2023-05-04T07:07:28.043Z,99.90
2023-05-04T07:09:56.693Z,99.90
2023-05-04T07:12:25.291Z,99.90
2023-05-04T07:14:54.042Z,99.90
2023-05-04T07:17:25.751Z,99.90
2023-05-04T07:19:54.548Z,99.90
2023-05-04T07:22:23.162Z,99.90
2023-05-04T07:24:51.846Z,99.90
2023-05-04T07:27:20.550Z,99.90
2023-05-04T07:29:50.865Z,99.90
2023-05-04T07:32:20.203Z,99.90
2023-05-04T07:34:51.683Z,99.90
2023-05-04T07:37:20.447Z,99.90
2023-05-04T07:39:49.469Z,99.90
2023-05-04T07:42:18.187Z,99.90
2023-05-04T07:44:47.230Z,99.90
2023-05-04T07:47:16.515Z,99.90
2023-05-04T07:49:47.008Z,99.90
2023-05-04T07:52:17.410Z,99.90
2023-05-04T07:54:46.422Z,99.90
2023-05-04T07:57:15.288Z,99.90
2023-05-04T07:59:43.938Z,99.90
2023-05-04T08:02:12.951Z,99.90
2023-05-04T08:04:41.629Z,99.90
2023-05-04T08:07:10.552Z,99.90
2023-05-04T08:09:40.693Z,99.90
2023-05-04T08:12:10.139Z,99.90
2023-05-04T08:14:39.322Z,99.90
2023-05-04T08:17:13.031Z,99.90
2023-05-04T08:19:41.890Z,99.90
2023-05-04T08:22:10.882Z,99.90
2023-05-04T08:24:40.983Z,99.90
2023-05-04T08:27:10.272Z,99.90
2023-05-04T08:29:39.211Z,99.90
2023-05-04T08:32:10.555Z,99.90
2023-05-04T08:34:39.290Z,99.90
2023-05-04T08:37:08.201Z,99.90
2023-05-04T08:39:40.502Z,99.90
2023-05-04T08:42:12.672Z,99.90
2023-05-04T08:44:43.980Z,99.90
2023-05-04T08:47:12.671Z,99.90
2023-05-04T08:49:43.956Z,99.90
2023-05-04T08:52:14.886Z,99.90
2023-05-04T08:54:44.474Z,99.90
2023-05-04T08:57:15.529Z,99.90
2023-05-04T08:59:44.615Z,99.90
2023-05-04T09:02:14.991Z,99.90
2023-05-04T09:04:43.895Z,99.90
2023-05-04T09:07:13.164Z,99.90
2023-05-04T09:09:42.718Z,99.90
2023-05-04T09:12:11.804Z,99.90
2023-05-04T09:14:42.881Z,99.90
2023-05-04T09:17:16.640Z,99.90
2023-05-04T09:19:45.962Z,99.90
2023-05-04T09:22:19.343Z,99.90
2023-05-04T09:24:48.279Z,99.90
2023-05-04T09:27:18.316Z,99.90
2023-05-04T09:29:55.550Z,99.90
2023-05-04T09:32:24.542Z,99.90
2023-05-04T09:34:54.824Z,99.90
2023-05-04T09:37:24.223Z,99.90
2023-05-04T09:39:55.767Z,99.90
2023-05-04T09:42:25.441Z,99.90
2023-05-04T09:45:03.821Z,99.90
2023-05-04T09:47:37.109Z,99.90
2023-05-04T09:50:19.874Z,99.90
2023-05-04T09:52:50.833Z,99.90
2023-05-04T09:55:21.006Z,99.90
2023-05-04T09:57:51.190Z,99.90
2023-05-04T10:00:22.561Z,99.90
2023-05-04T10:02:52.205Z,99.90
2023-05-04T10:05:22.000Z,99.90
2023-05-04T10:07:51.242Z,99.90
2023-05-04T10:10:20.104Z,99.90
2023-05-04T10:12:49.348Z,99.90
2023-05-04T10:15:19.521Z,99.90
2023-05-04T10:18:08.934Z,99.90
2023-05-04T10:20:55.323Z,99.90
2023-05-04T10:23:55.153Z,99.90
2023-05-04T10:26:45.836Z,99.90
2023-05-04T10:29:23.605Z,99.90
2023-05-04T10:31:53.655Z,99.90
2023-05-04T10:34:28.108Z,99.90
2023-05-04T10:36:57.509Z,99.90
2023-05-04T10:39:27.370Z,99.90
2023-05-04T10:42:04.233Z,99.90
2023-05-04T10:44:33.958Z,99.90
2023-05-04T10:47:05.776Z,99.90
2023-05-04T10:49:38.191Z,99.90
2023-05-04T10:52:09.308Z,99.90
2023-05-04T10:54:38.708Z,99.90
2023-05-04T10:57:09.290Z,99.90
2023-05-04T10:59:38.950Z,99.90
2023-05-04T11:02:08.261Z,99.40
2023-05-04T11:04:39.813Z,98.80
2023-05-04T11:07:09.473Z,99.40
2023-05-04T11:09:39.499Z,99.90
2023-05-04T11:12:10.889Z,99.20
2023-05-04T11:14:42.868Z,98.70
2023-05-04T11:19:57.514Z,97.80
2023-05-04T11:22:26.536Z,97.70
2023-05-04T11:24:56.313Z,98.50
2023-05-04T11:27:26.342Z,98.60
2023-05-04T11:30:00.457Z,98.50
2023-05-04T11:32:36.449Z,98.60
2023-05-04T11:35:10.248Z,98.10
2023-05-04T11:37:42.406Z,98.00
2023-05-04T11:40:15.450Z,97.40
2023-05-04T11:42:45.463Z,98.70
2023-05-04T11:45:17.290Z,98.00
2023-05-04T11:47:46.974Z,97.80
2023-05-04T11:50:19.640Z,96.30
2023-05-04T11:52:49.235Z,95.70
2023-05-04T11:55:28.219Z,95.60
2023-05-04T11:58:00.295Z,96.00
2023-05-04T12:00:40.362Z,96.00
2023-05-04T12:03:10.602Z,96.10
2023-05-04T12:05:41.277Z,96.90
2023-05-04T12:08:12.605Z,97.00
2023-05-04T12:10:41.759Z,96.90
2023-05-04T12:13:18.230Z,96.70
2023-05-04T12:15:47.024Z,96.70
2023-05-04T12:18:29.859Z,96.50
2023-05-04T12:21:12.826Z,96.10
2023-05-04T12:23:42.467Z,95.50
2023-05-04T12:26:12.114Z,96.00
2023-05-04T12:28:41.787Z,94.70
2023-05-04T12:31:10.775Z,95.00
2023-05-04T12:33:39.843Z,95.50
2023-05-04T12:36:10.942Z,95.40
2023-05-04T12:38:39.814Z,94.90
2023-05-04T12:41:11.181Z,94.00
2023-05-04T12:43:39.869Z,94.40
2023-05-04T12:46:09.468Z,93.50
2023-05-04T12:48:38.357Z,93.30
2023-05-04T12:51:07.175Z,93.50
2023-05-04T12:53:37.159Z,93.60
2023-05-04T12:56:06.287Z,93.00
2023-05-04T12:58:34.962Z,93.20
2023-05-04T13:01:07.750Z,93.10
2023-05-04T13:03:37.056Z,94.10
2023-05-04T13:06:06.077Z,92.60
2023-05-04T13:08:34.898Z,92.10
2023-05-04T13:11:05.631Z,92.00
2023-05-04T13:13:34.468Z,92.00
2023-05-04T13:16:03.256Z,92.30
2023-05-04T13:18:32.333Z,91.80
2023-05-04T13:21:01.564Z,92.30
2023-05-04T13:23:31.049Z,92.20
2023-05-04T13:25:59.873Z,91.90
2023-05-04T13:28:30.118Z,91.80
2023-05-04T13:30:58.867Z,92.30
2023-05-04T13:33:29.923Z,91.70
2023-05-04T13:36:02.385Z,92.10
2023-05-04T13:38:31.269Z,91.70
2023-05-04T13:41:02.975Z,91.70
2023-05-04T13:43:33.757Z,91.30
2023-05-04T13:46:04.770Z,90.90
2023-05-04T13:48:34.398Z,90.40
2023-05-04T13:51:07.344Z,90.60
2023-05-04T13:53:36.225Z,91.50
2023-05-04T13:56:06.746Z,90.30
2023-05-04T13:58:37.001Z,90.10
2023-05-04T14:01:06.108Z,90.30
2023-05-04T14:03:35.977Z,90.20
2023-05-04T14:06:05.853Z,89.10
2023-05-04T14:08:34.707Z,88.60
2023-05-04T14:11:03.719Z,89.90
2023-05-04T14:13:32.619Z,87.90
2023-05-04T14:16:04.039Z,88.00
2023-05-04T14:18:33.445Z,88.10
2023-05-04T14:21:02.327Z,86.40
2023-05-04T14:23:31.518Z,85.30
2023-05-04T14:26:00.316Z,85.90
2023-05-04T14:28:29.383Z,86.20
2023-05-04T14:30:59.720Z,87.70
2023-05-04T14:33:31.065Z,85.70
2023-05-04T14:35:59.949Z,85.80
2023-05-04T14:38:28.723Z,85.60
2023-05-04T14:40:58.931Z,84.70
2023-05-04T14:43:27.987Z,84.60
2023-05-04T14:45:57.360Z,85.10
2023-05-04T14:48:28.660Z,87.00
2023-05-04T14:50:58.633Z,84.60
2023-05-04T14:53:30.059Z,84.80
2023-05-04T14:55:59.646Z,84.20
2023-05-04T14:58:28.871Z,84.40
2023-05-04T15:00:57.996Z,85.50
2023-05-04T15:03:26.820Z,83.30
2023-05-04T15:05:57.839Z,83.90
2023-05-04T15:08:26.747Z,83.50
2023-05-04T15:10:59.364Z,83.80
2023-05-04T15:13:32.142Z,83.60
2023-05-04T15:16:01.086Z,83.90
2023-05-04T15:18:30.052Z,84.00
2023-05-04T15:21:00.384Z,84.70
2023-05-04T15:23:32.480Z,84.90
2023-05-04T15:26:01.930Z,83.60
2023-05-04T15:28:30.617Z,84.60
2023-05-04T15:31:00.764Z,85.20
2023-05-04T15:33:29.485Z,86.20
2023-05-04T15:35:59.811Z,85.50
2023-05-04T15:38:29.345Z,85.20
2023-05-04T15:40:57.991Z,85.20
2023-05-04T15:43:26.788Z,85.50
2023-05-04T15:45:56.927Z,86.30
2023-05-04T15:48:25.892Z,85.40
2023-05-04T15:50:54.990Z,86.50
2023-05-04T15:53:25.267Z,87.20
2023-05-04T15:55:54.347Z,86.50
2023-05-04T15:58:23.530Z,86.20
2023-05-04T16:00:52.336Z,87.70
2023-05-04T16:03:22.747Z,86.30
2023-05-04T16:05:51.898Z,86.10
2023-05-04T16:08:20.581Z,85.90
2023-05-04T16:10:52.230Z,85.70
2023-05-04T16:13:21.366Z,85.80
2023-05-04T16:15:52.522Z,86.30
2023-05-04T16:18:21.855Z,86.00
2023-05-04T16:20:50.850Z,86.30
2023-05-04T16:23:20.028Z,86.70
2023-05-04T16:25:50.180Z,87.80
2023-05-04T16:28:19.095Z,87.50
2023-05-04T16:30:50.571Z,87.70
2023-05-04T16:33:19.794Z,88.80
2023-05-04T16:35:48.570Z,88.30
2023-05-04T16:38:19.767Z,89.30
2023-05-04T16:40:57.586Z,88.70
2023-05-04T16:43:26.729Z,89.00
2023-05-04T16:45:55.648Z,89.00
2023-05-04T16:48:24.683Z,89.20
2023-05-04T16:50:53.770Z,89.30
2023-05-04T16:53:22.601Z,89.80
2023-05-04T16:55:53.130Z,90.10
2023-05-04T16:58:22.244Z,89.90
2023-05-04T17:00:53.229Z,90.00
2023-05-04T17:03:23.484Z,89.80
2023-05-04T17:05:52.696Z,89.50
2023-05-04T17:08:21.382Z,88.80
2023-05-04T17:10:52.215Z,89.30
2023-05-04T17:13:21.193Z,89.40
2023-05-04T17:15:50.563Z,89.50
2023-05-04T17:18:20.750Z,89.30
2023-05-04T17:20:49.758Z,89.30
2023-05-04T17:23:20.782Z,89.80
2023-05-04T17:25:52.272Z,90.10
2023-05-04T17:28:22.929Z,89.60
2023-05-04T17:30:52.386Z,90.00
2023-05-04T17:33:21.736Z,90.10
2023-05-04T17:35:51.289Z,90.10
2023-05-04T17:38:23.186Z,90.20
2023-05-04T17:40:52.179Z,90.20
2023-05-04T17:43:24.765Z,90.50
2023-05-04T17:45:55.662Z,90.60
2023-05-04T17:48:25.377Z,90.30
2023-05-04T17:50:54.362Z,90.50
2023-05-04T17:53:24.718Z,90.60
2023-05-04T17:55:53.878Z,90.60
2023-05-04T17:58:24.178Z,90.40
2023-05-04T18:00:53.313Z,90.80
2023-05-04T18:03:22.698Z,90.70
2023-05-04T18:05:51.495Z,91.00
2023-05-04T18:08:20.601Z,90.80
2023-05-04T18:10:49.465Z,90.90
2023-05-04T18:13:18.376Z,90.90
2023-05-04T18:15:48.802Z,90.70
2023-05-04T18:18:17.864Z,90.60
2023-05-04T18:20:46.898Z,90.70
2023-05-04T18:23:21.474Z,91.00
2023-05-04T18:25:53.406Z,91.00
2023-05-04T18:28:22.223Z,91.30
2023-05-04T18:30:52.470Z,91.00
2023-05-04T18:33:23.300Z,91.10
2023-05-04T18:35:52.851Z,91.40
2023-05-04T18:38:22.157Z,91.50
2023-05-04T18:40:55.034Z,91.60
2023-05-04T18:43:24.054Z,91.50
2023-05-04T18:45:54.367Z,91.80
2023-05-04T18:48:23.456Z,91.70
2023-05-04T18:50:58.311Z,91.70
2023-05-04T18:53:27.843Z,91.80
2023-05-04T18:56:04.428Z,91.90
2023-05-04T18:58:33.927Z,92.30
2023-05-04T19:01:13.639Z,92.40
2023-05-04T19:03:45.286Z,92.50
2023-05-04T19:06:14.723Z,92.40
2023-05-04T19:08:43.748Z,92.50
2023-05-04T19:11:14.026Z,92.60
2023-05-04T19:13:43.327Z,92.70
2023-05-04T19:16:15.373Z,92.80
2023-05-04T19:18:46.288Z,92.90
2023-05-04T19:21:18.168Z,93.20
2023-05-04T19:23:48.385Z,92.90
2023-05-04T19:26:17.832Z,93.30
2023-05-04T19:28:46.909Z,93.40
2023-05-04T19:31:19.157Z,93.60
2023-05-04T19:33:49.788Z,93.80
2023-05-04T19:36:18.975Z,94.00
2023-05-04T19:38:48.072Z,94.10
2023-05-04T19:41:16.846Z,94.10
2023-05-04T19:43:46.748Z,94.30
2023-05-04T19:46:15.757Z,95.00
2023-05-04T19:48:48.856Z,95.30
2023-05-04T19:51:17.831Z,95.50
2023-05-04T19:53:50.034Z,95.60
2023-05-04T19:56:18.960Z,96.30
2023-05-04T19:58:51.413Z,96.90
2023-05-04T20:01:20.698Z,97.30
2023-05-04T20:03:51.232Z,97.70
2023-05-04T20:06:20.248Z,98.20
2023-05-04T20:08:49.052Z,98.70
2023-05-04T20:11:17.936Z,99.00
2023-05-04T20:13:48.605Z,99.90
2023-05-04T20:16:18.728Z,99.90
2023-05-04T20:18:48.133Z,99.90
2023-05-04T20:21:20.371Z,99.90
2023-05-04T20:23:49.225Z,99.90
2023-05-04T20:26:18.187Z,99.90
2023-05-04T20:28:47.233Z,99.90
2023-05-04T20:31:18.204Z,99.90
2023-05-04T20:33:47.382Z,99.90
2023-05-04T20:36:16.482Z,99.90
2023-05-04T20:38:47.358Z,99.90
2023-05-04T20:41:22.414Z,99.90
2023-05-04T20:43:51.750Z,99.90
2023-05-04T20:46:20.798Z,99.90
2023-05-04T20:48:49.688Z,99.90
2023-05-04T20:51:18.853Z,99.90
2023-05-04T20:53:49.247Z,99.90
2023-05-04T20:56:17.990Z,99.90
2023-05-04T20:58:47.000Z,99.90
2023-05-04T21:01:16.156Z,99.90
2023-05-04T21:03:45.278Z,99.90
2023-05-04T21:06:14.507Z,99.90
2023-05-04T21:08:43.625Z,99.90
2023-05-04T21:11:14.668Z,99.90
2023-05-04T21:13:43.923Z,99.90
2023-05-04T21:16:13.027Z,99.90
2023-05-04T21:18:41.817Z,99.90
2023-05-04T21:21:10.880Z,99.90
2023-05-04T21:23:39.521Z,99.90
2023-05-04T21:26:08.535Z,99.90
2023-05-04T21:28:39.372Z,99.90
2023-05-04T21:31:09.692Z,99.90
2023-05-04T21:33:39.223Z,99.90
2023-05-04T21:36:15.173Z,99.90
2023-05-04T21:38:44.357Z,99.90
2023-05-04T21:41:14.727Z,99.90
2023-05-04T21:43:45.415Z,99.90
2023-05-04T21:46:14.140Z,99.90
2023-05-04T21:48:43.339Z,99.90
2023-05-04T21:51:12.106Z,99.90
2023-05-04T21:53:44.232Z,99.90
2023-05-04T21:56:13.692Z,99.90
2023-05-04T21:58:44.010Z,99.90
2023-05-04T22:01:18.086Z,99.90
2023-05-04T22:03:47.460Z,99.90
2023-05-04T22:06:16.963Z,99.90
2023-05-04T22:08:46.271Z,99.90
2023-05-04T22:11:14.986Z,99.90
2023-05-04T22:13:45.378Z,99.90
2023-05-04T22:16:14.175Z,99.90
2023-05-04T22:18:43.096Z,99.90
2023-05-04T22:21:11.894Z,99.90
2023-05-04T22:23:41.383Z,99.90
2023-05-04T22:26:10.382Z,99.90
2023-05-04T22:28:39.038Z,99.90
2023-05-04T22:31:09.160Z,99.90
2023-05-04T22:33:37.798Z,99.90
2023-05-04T22:36:07.332Z,99.90
2023-05-04T22:38:36.111Z,99.90
2023-05-04T22:41:04.705Z,99.90
2023-05-04T22:43:33.295Z,99.90
2023-05-04T22:46:02.437Z,99.90
2023-05-04T22:48:32.678Z,99.90
2023-05-04T22:51:01.712Z,99.90
2023-05-04T22:53:30.530Z,99.90
2023-05-04T22:55:59.582Z,99.90
2023-05-04T22:58:28.401Z,99.90
2023-05-04T23:00:57.170Z,99.90
2023-05-04T23:03:25.951Z,99.90
2023-05-04T23:05:59.427Z,99.90
2023-05-04T23:08:28.082Z,99.90
2023-05-04T23:10:56.768Z,99.90
2023-05-04T23:13:26.241Z,99.90
2023-05-04T23:15:55.158Z,99.90
2023-05-04T23:18:23.775Z,99.90
2023-05-04T23:20:52.424Z,99.90
2023-05-04T23:23:22.618Z,99.90
2023-05-04T23:25:51.554Z,99.90
2023-05-04T23:28:20.319Z,99.90
2023-05-04T23:30:48.904Z,99.90
2023-05-04T23:33:17.566Z,99.90
2023-05-04T23:35:46.427Z,99.90
2023-05-04T23:38:15.146Z,99.90
2023-05-04T23:40:45.700Z,99.90
2023-05-04T23:43:14.555Z,99.90
2023-05-04T23:45:43.468Z,99.90
2023-05-04T23:48:12.260Z,99.90
2023-05-04T23:50:41.403Z,99.90
2023-05-04T23:53:10.100Z,99.90
2023-05-04T23:55:38.856Z,99.90
2023-05-04T23:58:09.012Z,99.90
